Time;durP1;ratioP1;P1;durP2;ratioP2;P2;SDS_P1;SDS_P2;PMS_P1;PMS_P2;Temp;Humidity;BMP_temperature;BMP_pressure;BME280_temperature;BME280_humidity;BME280_pressure;Samples;Min_cycle;Max_cycle;Signal;HPM_P1;HPM_P2
2023/04/11 00:00:10;;;;;;;3.77;3.37;;;11.70;1.00;;;;;;6180280;23;20190;-78
2023/04/11 00:02:37;;;;;;;3.30;3.10;;;11.60;1.00;;;;;;6207457;23;20603;-78
2023/04/11 00:05:06;;;;;;;3.50;3.20;;;11.50;1.00;;;;;;6180732;23;20653;-79
2023/04/11 00:07:32;;;;;;;3.80;3.50;;;11.40;1.00;;;;;;6180307;23;20182;-79
2023/04/11 00:09:58;;;;;;;3.70;3.40;;;11.30;1.00;;;;;;6206915;23;20582;-78
2023/04/11 00:12:23;;;;;;;4.00;3.60;;;11.30;1.00;;;;;;6207541;23;20241;-79
2023/04/11 00:14:52;;;;;;;4.97;3.50;;;11.10;1.00;;;;;;6180606;23;20170;-78
2023/04/11 00:17:22;;;;;;;4.10;3.75;;;11.00;1.00;;;;;;6207268;23;20208;-79
2023/04/11 00:19:48;;;;;;;4.80;4.28;;;10.90;1.00;;;;;;6180314;23;20188;-79
2023/04/11 00:22:16;;;;;;;4.30;3.90;;;10.80;1.00;;;;;;6207001;23;20151;-79
2023/04/11 00:24:42;;;;;;;4.50;4.10;;;10.60;1.00;;;;;;6180082;23;20293;-79
2023/04/11 00:27:08;;;;;;;3.77;3.47;;;10.60;1.00;;;;;;6207491;23;20816;-80
2023/04/11 00:29:35;;;;;;;3.97;3.57;;;10.50;1.00;;;;;;6206135;23;20241;-80
2023/04/11 00:32:01;;;;;;;4.73;3.80;;;10.40;1.00;;;;;;6180442;23;20946;-78
2023/04/11 00:34:27;;;;;;;4.50;4.10;;;10.40;1.00;;;;;;6206541;23;20235;-79
2023/04/11 00:36:53;;;;;;;3.93;3.53;;;10.40;1.00;;;;;;6179583;23;20186;-79
2023/04/11 00:39:21;;;;;;;4.00;3.60;;;10.30;1.00;;;;;;6205837;23;20177;-79
2023/04/11 00:41:47;;;;;;;4.17;3.73;;;10.30;11.20;;;;;;6207011;23;20175;-80
2023/04/11 00:44:13;;;;;;;5.27;4.60;;;10.20;78.60;;;;;;6206586;23;20159;-78
2023/04/11 00:46:41;;;;;;;4.70;4.20;;;10.10;99.90;;;;;;6180119;23;20162;-79
2023/04/11 00:49:07;;;;;;;4.30;3.90;;;10.00;99.90;;;;;;6206135;23;20619;-79
2023/04/11 00:51:34;;;;;;;4.37;3.97;;;10.00;99.90;;;;;;6206593;23;20154;-78
2023/04/11 00:54:00;;;;;;;5.23;4.03;;;9.90;99.90;;;;;;6180295;23;20296;-78
2023/04/11 00:56:26;;;;;;;4.40;4.00;;;9.90;99.90;;;;;;6206519;23;20549;-78
2023/04/11 00:58:52;;;;;;;4.17;3.60;;;9.80;99.90;;;;;;6179830;23;20165;-79
2023/04/11 01:01:18;;;;;;;4.30;3.90;;;9.80;99.90;;;;;;6179476;23;20239;-79
2023/04/11 01:03:44;;;;;;;4.57;3.80;;;9.80;99.90;;;;;;6179681;23;20249;-78
2023/04/11 01:06:12;;;;;;;4.73;4.17;;;9.70;99.90;;;;;;6179982;23;20277;-79
2023/04/11 01:08:42;;;;;;;6.77;4.60;;;9.70;99.90;;;;;;6179353;23;20227;-78
2023/04/11 01:11:09;;;;;;;5.23;4.60;;;9.70;99.90;;;;;;6206499;23;20513;-78
2023/04/11 01:13:38;;;;;;;5.07;4.23;;;9.80;99.90;;;;;;6206470;23;20212;-79
2023/04/11 01:16:04;;;;;;;5.50;4.73;;;9.70;99.90;;;;;;6206548;23;20158;-78
2023/04/11 01:18:29;;;;;;;4.60;4.20;;;9.70;99.90;;;;;;6179425;23;20602;-79
2023/04/11 01:20:56;;;;;;;4.90;4.40;;;9.60;99.90;;;;;;6205681;23;20186;-78
2023/04/11 01:23:26;;;;;;;4.70;4.30;;;9.70;99.90;;;;;;6179691;23;20162;-79
2023/04/11 01:25:52;;;;;;;4.60;4.20;;;9.60;99.90;;;;;;6206265;23;20151;-81
2023/04/11 01:28:18;;;;;;;5.03;4.63;;;9.50;99.90;;;;;;6206038;23;20182;-79
2023/04/11 01:30:44;;;;;;;5.43;4.50;;;9.60;99.90;;;;;;6179240;23;20184;-79
2023/04/11 01:33:11;;;;;;;5.20;4.67;;;9.80;99.90;;;;;;6179050;23;20204;-80
2023/04/11 01:35:37;;;;;;;4.83;4.20;;;9.50;99.90;;;;;;6178995;23;20162;-79
2023/04/11 01:38:03;;;;;;;4.27;3.87;;;9.60;99.90;;;;;;6206121;23;20181;-81
2023/04/11 01:40:31;;;;;;;4.07;3.67;;;9.60;99.90;;;;;;6179155;23;20268;-80
2023/04/11 01:42:58;;;;;;;3.63;3.33;;;9.70;99.90;;;;;;6206260;23;20154;-79
2023/04/11 01:45:25;;;;;;;4.30;3.90;;;9.70;99.90;;;;;;6206141;23;20466;-80
2023/04/11 01:47:51;;;;;;;5.13;4.63;;;9.70;99.90;;;;;;6205909;23;20150;-79
2023/04/11 01:50:17;;;;;;;6.03;5.10;;;9.50;99.90;;;;;;6205585;23;20630;-79
2023/04/11 01:52:42;;;;;;;5.60;4.97;;;9.50;99.90;;;;;;6204841;23;20229;-80
2023/04/11 01:55:08;;;;;;;5.40;4.90;;;9.40;1.00;;;;;;6178962;23;20169;-81
2023/04/11 01:57:33;;;;;;;5.20;4.73;;;9.40;1.00;;;;;;6178823;23;20158;-79
2023/04/11 02:00:00;;;;;;;5.23;4.73;;;9.30;1.00;;;;;;6204673;23;20199;-79
2023/04/11 02:02:25;;;;;;;5.00;4.50;;;9.30;1.00;;;;;;6179128;23;20245;-79
2023/04/11 02:04:51;;;;;;;4.60;4.20;;;9.30;32.20;;;;;;6179258;23;20240;-81
2023/04/11 02:07:16;;;;;;;5.03;4.50;;;9.30;1.00;;;;;;6205512;23;20150;-78
2023/04/11 02:09:42;;;;;;;4.60;4.13;;;9.30;1.00;;;;;;6205609;23;20185;-79
2023/04/11 02:12:07;;;;;;;5.03;4.53;;;9.30;50.90;;;;;;6179047;23;20238;-81
2023/04/11 02:14:41;;;;;;;4.20;3.80;;;9.20;1.00;;;;;;6179018;23;20185;-79
2023/04/11 02:17:08;;;;;;;3.50;3.20;;;9.30;1.00;;;;;;6179337;23;20161;-79
2023/04/11 02:19:39;;;;;;;3.77;3.20;;;9.30;1.00;;;;;;6178712;23;20710;-78
2023/04/11 02:22:07;;;;;;;3.37;3.07;;;9.30;1.00;;;;;;6179504;23;20493;-78
2023/04/11 02:24:32;;;;;;;3.50;3.20;;;9.20;1.00;;;;;;6179048;23;20158;-78
2023/04/11 02:27:00;;;;;;;3.20;2.90;;;8.70;1.00;;;;;;6206036;23;20498;-80
2023/04/11 02:29:25;;;;;;;3.40;3.10;;;9.20;1.00;;;;;;6205554;23;20170;-80
2023/04/11 02:31:51;;;;;;;3.10;2.80;;;9.10;1.00;;;;;;6179306;23;20165;-80
2023/04/11 02:34:16;;;;;;;3.13;2.77;;;9.10;1.00;;;;;;6179471;23;20167;-80
2023/04/11 02:36:42;;;;;;;3.77;2.83;;;9.10;1.00;;;;;;6205893;23;20192;-78
2023/04/11 02:39:08;;;;;;;2.97;2.57;;;9.10;1.00;;;;;;6205698;23;20154;-80
2023/04/11 02:41:37;;;;;;;3.43;2.53;;;9.10;1.00;;;;;;6178846;23;20245;-78
2023/04/11 02:44:02;;;;;;;2.93;2.50;;;9.20;99.90;;;;;;6179390;23;20162;-78
2023/04/11 02:46:28;;;;;;;2.60;2.10;;;9.20;99.90;;;;;;6179195;23;20704;-78
2023/04/11 02:48:53;;;;;;;2.10;1.90;;;9.10;99.90;;;;;;6205131;23;20151;-77
2023/04/11 02:51:19;;;;;;;1.90;1.80;;;9.10;99.90;;;;;;6179187;23;20205;-80
2023/04/11 02:53:45;;;;;;;3.10;2.20;;;9.10;99.90;;;;;;6178867;23;20166;-80
2023/04/11 02:56:10;;;;;;;1.87;1.73;;;9.10;99.90;;;;;;6205977;23;20647;-79
2023/04/11 02:58:40;;;;;;;2.20;2.00;;;9.10;99.90;;;;;;6205594;23;20595;-78
2023/04/11 03:01:06;;;;;;;1.97;1.77;;;9.10;99.90;;;;;;6205597;23;20257;-81
2023/04/11 03:03:33;;;;;;;2.27;1.70;;;9.10;99.90;;;;;;6178922;23;20166;-79
2023/04/11 03:05:58;;;;;;;1.90;1.80;;;9.10;99.90;;;;;;6178763;23;20166;-80
2023/04/11 03:08:24;;;;;;;1.60;1.50;;;9.10;99.90;;;;;;6205109;23;20269;-78
2023/04/11 03:10:50;;;;;;;2.20;1.80;;;9.10;99.90;;;;;;6180384;23;20194;-80
2023/04/11 03:13:15;;;;;;;1.80;1.70;;;9.00;99.90;;;;;;6207510;23;20479;-80
2023/04/11 03:15:41;;;;;;;2.00;1.80;;;9.00;99.90;;;;;;6207813;23;20158;-79
2023/04/11 03:18:06;;;;;;;1.93;1.70;;;8.90;99.90;;;;;;6206961;23;20161;-78
2023/04/11 03:20:32;;;;;;;1.70;1.40;;;8.90;99.90;;;;;;6180712;23;20178;-80
2023/04/11 03:22:58;;;;;;;1.87;1.47;;;8.90;99.90;;;;;;6207765;23;20156;-80
2023/04/11 03:25:23;;;;;;;1.90;1.00;;;8.90;99.90;;;;;;6207567;23;20147;-78
2023/04/11 03:27:49;;;;;;;1.93;1.30;;;9.00;99.90;;;;;;6180005;23;20158;-79
2023/04/11 03:30:15;;;;;;;1.63;1.00;;;8.90;99.90;;;;;;6207304;23;20178;-78
2023/04/11 03:32:40;;;;;;;1.57;1.10;;;8.90;99.90;;;;;;6207611;23;20474;-80
2023/04/11 03:35:06;;;;;;;2.27;1.27;;;8.80;99.90;;;;;;6207868;23;20154;-78
2023/04/11 03:37:32;;;;;;;1.50;1.10;;;8.70;99.90;;;;;;6180446;23;20162;-78
2023/04/11 03:39:57;;;;;;;1.57;0.90;;;8.70;90.20;;;;;;6206649;23;20179;-78
2023/04/11 03:42:23;;;;;;;0.80;0.80;;;8.70;66.20;;;;;;6181042;23;20158;-80
2023/04/11 03:44:48;;;;;;;1.17;0.70;;;8.70;51.30;;;;;;6180716;23;20154;-78
2023/04/11 03:47:14;;;;;;;0.97;0.80;;;8.80;23.30;;;;;;6180797;23;20155;-79
2023/04/11 03:49:39;;;;;;;1.50;1.10;;;8.80;12.80;;;;;;6206968;23;20178;-78
2023/04/11 03:52:06;;;;;;;3.00;0.90;;;8.80;5.80;;;;;;6208972;23;20878;-80
2023/04/11 03:54:32;;;;;;;2.13;0.73;;;8.80;8.40;;;;;;6181529;23;20169;-80
2023/04/11 03:56:57;;;;;;;2.17;0.80;;;8.70;7.30;;;;;;6208173;23;20154;-80
2023/04/11 03:59:23;;;;;;;3.10;0.80;;;8.70;4.00;;;;;;6180283;23;20236;-79
2023/04/11 04:01:48;;;;;;;1.13;0.80;;;8.60;10.20;;;;;;6207344;23;20178;-79
2023/04/11 04:04:14;;;;;;;1.70;0.90;;;8.50;10.70;;;;;;6180019;23;20154;-80
2023/04/11 04:06:39;;;;;;;2.23;0.83;;;8.50;20.60;;;;;;6180461;23;20209;-78
2023/04/11 04:09:05;;;;;;;1.30;0.70;;;8.50;20.70;;;;;;6206169;23;20170;-78
2023/04/11 04:11:31;;;;;;;1.30;0.80;;;8.50;27.10;;;;;;6206880;23;20178;-78
2023/04/11 04:13:57;;;;;;;1.20;0.73;;;8.50;32.70;;;;;;6206962;23;20158;-78
2023/04/11 04:16:23;;;;;;;2.97;1.00;;;8.50;34.50;;;;;;6206921;23;20158;-79
2023/04/11 04:18:48;;;;;;;1.93;0.90;;;8.40;42.40;;;;;;6179752;23;20249;-78
2023/04/11 04:21:14;;;;;;;3.07;0.80;;;8.40;49.50;;;;;;6206452;23;20185;-78
2023/04/11 04:23:46;;;;;;;1.53;0.70;;;8.50;38.50;;;;;;6180368;23;20166;-80
2023/04/11 04:26:23;;;;;;;1.33;0.97;;;8.60;30.40;;;;;;6206532;23;20130;-78
2023/04/11 04:28:49;;;;;;;1.50;0.80;;;8.70;18.20;;;;;;6206191;23;20141;-80
2023/04/11 04:31:21;;;;;;;2.50;1.10;;;8.70;9.90;;;;;;6206567;23;20174;-80
2023/04/11 04:33:48;;;;;;;2.63;1.00;;;8.80;6.80;;;;;;6179876;23;20178;-79
2023/04/11 04:36:16;;;;;;;3.33;1.60;;;8.90;1.00;;;;;;6206767;23;20671;-77
2023/04/11 04:38:43;;;;;;;3.87;1.23;;;9.00;1.00;;;;;;6206301;23;20162;-79
2023/04/11 04:41:13;;;;;;;3.23;1.10;;;9.00;1.00;;;;;;6206296;23;20257;-79
2023/04/11 04:43:40;;;;;;;2.43;1.10;;;9.10;1.00;;;;;;6180365;23;20154;-78
2023/04/11 04:46:06;;;;;;;2.43;1.17;;;9.10;1.00;;;;;;6180133;23;20553;-78
2023/04/11 04:48:32;;;;;;;2.67;1.10;;;9.10;1.00;;;;;;6206226;23;20177;-79
2023/04/11 04:50:57;;;;;;;1.93;1.00;;;9.10;1.00;;;;;;6206215;23;20473;-78
2023/04/11 04:53:23;;;;;;;2.23;1.30;;;9.00;1.00;;;;;;6206665;23;20154;-79
2023/04/11 04:55:48;;;;;;;4.00;1.40;;;9.00;1.00;;;;;;6206281;23;20162;-79
2023/04/11 04:58:14;;;;;;;2.63;1.20;;;9.00;1.00;;;;;;6206385;23;20182;-79
2023/04/11 05:00:40;;;;;;;2.33;1.50;;;9.00;1.00;;;;;;6179298;23;20190;-81
2023/04/11 05:03:07;;;;;;;3.13;1.50;;;9.10;1.00;;;;;;6207020;23;20151;-79
2023/04/11 05:05:32;;;;;;;3.53;1.30;;;9.10;1.00;;;;;;6206723;23;20150;-79
2023/04/11 05:07:58;;;;;;;3.73;1.40;;;9.10;1.00;;;;;;6178509;23;20175;-79
2023/04/11 05:10:24;;;;;;;2.63;1.40;;;9.10;1.00;;;;;;6178401;23;21078;-80
2023/04/11 05:12:51;;;;;;;4.30;1.60;;;9.00;1.00;;;;;;6179240;23;20245;-79
2023/04/11 05:15:17;;;;;;;4.03;1.27;;;9.00;1.00;;;;;;6180088;23;20184;-77
2023/04/11 05:17:43;;;;;;;3.33;1.40;;;9.00;1.00;;;;;;6206820;23;20208;-79
2023/04/11 05:20:09;;;;;;;3.47;1.47;;;9.00;1.00;;;;;;6180800;23;20221;-79
2023/04/11 05:22:36;;;;;;;3.67;1.30;;;9.00;1.00;;;;;;6180290;23;20182;-77
2023/04/11 05:25:02;;;;;;;2.40;1.20;;;8.90;1.00;;;;;;6207334;23;20216;-79
2023/04/11 05:27:28;;;;;;;6.70;1.40;;;8.90;1.00;;;;;;6207661;23;20150;-78
2023/04/11 05:29:53;;;;;;;2.40;1.00;;;9.00;1.00;;;;;;6206082;23;20177;-80
2023/04/11 05:32:19;;;;;;;4.13;1.47;;;8.90;1.00;;;;;;6179782;23;20241;-78
2023/04/11 05:34:52;;;;;;;3.43;1.60;;;9.00;1.00;;;;;;6179422;23;20158;-78
2023/04/11 05:37:18;;;;;;;2.17;1.47;;;9.10;1.00;;;;;;6206387;23;20161;-78
2023/04/11 05:39:44;;;;;;;4.40;1.90;;;9.10;1.00;;;;;;6206188;23;20241;-79
2023/04/11 05:42:10;;;;;;;2.80;1.30;;;9.10;1.00;;;;;;6179829;23;20177;-78
2023/04/11 05:44:35;;;;;;;3.10;1.43;;;9.10;1.00;;;;;;6206454;23;20158;-78
2023/04/11 05:47:01;;;;;;;3.40;1.70;;;8.90;1.00;;;;;;6183581;23;20154;-80
2023/04/11 05:49:26;;;;;;;4.30;1.60;;;8.30;1.00;;;;;;6207055;23;20170;-81
2023/04/11 05:51:52;;;;;;;3.57;1.33;;;7.90;1.00;;;;;;6207793;23;20157;-82
2023/04/11 05:54:39;;;;;;;3.97;1.47;;;7.70;1.00;;;;;;6207341;23;20163;-82
2023/04/11 05:57:06;;;;;;;6.20;1.60;;;7.60;26.60;;;;;;6180628;23;20157;-82
2023/04/11 05:59:33;;;;;;;4.93;1.40;;;7.60;54.90;;;;;;6180416;23;20590;-82
2023/04/11 06:01:59;;;;;;;4.47;1.53;;;7.60;99.90;;;;;;6207433;23;20261;-82
2023/04/11 06:04:25;;;;;;;3.13;1.67;;;7.60;99.90;;;;;;6207616;23;20705;-81
2023/04/11 06:06:51;;;;;;;2.10;1.43;;;7.50;99.90;;;;;;6180948;23;20263;-81
2023/04/11 06:09:17;;;;;;;3.50;1.37;;;7.40;95.20;;;;;;6207245;23;20158;-81
2023/04/11 06:11:43;;;;;;;3.00;1.20;;;7.60;50.00;;;;;;6180898;23;20173;-82
2023/04/11 06:14:09;;;;;;;2.60;1.53;;;7.70;35.60;;;;;;6207931;23;20158;-82
2023/04/11 06:16:35;;;;;;;3.30;1.50;;;7.90;44.10;;;;;;6207469;23;20154;-80
2023/04/11 06:19:02;;;;;;;2.33;1.40;;;8.10;37.70;;;;;;6180358;23;20166;-81
2023/04/11 06:21:27;;;;;;;3.73;1.97;;;8.20;23.20;;;;;;6181028;23;20901;-81
2023/04/11 06:23:53;;;;;;;2.37;1.37;;;8.20;9.10;;;;;;6180334;23;20162;-81
2023/04/11 06:26:18;;;;;;;3.33;1.50;;;8.20;1.00;;;;;;6184465;23;20212;-83
2023/04/11 06:28:44;;;;;;;3.17;1.40;;;8.20;1.00;;;;;;6188373;23;20161;-83
2023/04/11 06:31:10;;;;;;;5.43;1.83;;;8.30;1.00;;;;;;6187521;23;20178;-81
2023/04/11 06:33:36;;;;;;;4.80;1.40;;;8.40;1.00;;;;;;6189148;23;20172;-83
2023/04/11 06:36:02;;;;;;;5.67;1.37;;;8.50;1.00;;;;;;6216250;23;20206;-82
2023/04/11 06:38:27;;;;;;;4.37;1.73;;;8.60;1.00;;;;;;6189350;23;20193;-81
2023/04/11 06:40:55;;;;;;;5.07;1.50;;;9.70;1.00;;;;;;6188442;23;20221;-81
2023/04/11 06:43:21;;;;;;;5.60;2.00;;;11.60;1.00;;;;;;6223518;23;20174;-83
2023/04/11 06:45:48;;;;;;;13.33;2.30;;;12.90;1.00;;;;;;6213840;23;20154;-83
2023/04/11 06:48:16;;;;;;;5.40;2.20;;;14.20;1.00;;;;;;6215525;23;20957;-82
2023/04/11 06:50:42;;;;;;;4.95;2.03;;;14.30;1.00;;;;;;6189254;23;20183;-83
2023/04/11 06:53:08;;;;;;;10.65;2.30;;;14.60;1.00;;;;;;6188491;23;20166;-86
2023/04/11 06:55:34;;;;;;;4.28;2.10;;;14.90;1.00;;;;;;6216087;23;20162;-82
2023/04/11 06:58:00;;;;;;;7.03;2.23;;;14.00;1.00;;;;;;6185330;23;20168;-80
2023/04/11 07:00:26;;;;;;;6.40;2.90;;;11.70;1.00;;;;;;6184484;23;20190;-79
2023/04/11 07:02:52;;;;;;;4.07;1.98;;;11.80;1.00;;;;;;6185658;23;20250;-79
2023/04/11 07:05:18;;;;;;;3.83;2.10;;;12.20;1.00;;;;;;6213548;23;20708;-82
2023/04/11 07:07:43;;;;;;;6.47;2.40;;;12.00;1.00;;;;;;6213250;23;20146;-81
2023/04/11 07:10:09;;;;;;;7.03;2.43;;;11.50;1.00;;;;;;6212504;23;20206;-82
2023/04/11 07:12:35;;;;;;;5.60;2.57;;;11.00;1.00;;;;;;6186243;23;20162;-79
2023/04/11 07:15:02;;;;;;;6.93;2.50;;;10.70;1.00;;;;;;6181337;23;20165;-79
2023/04/11 07:17:28;;;;;;;4.93;2.27;;;10.60;1.00;;;;;;6207949;23;20215;-80
2023/04/11 07:19:53;;;;;;;6.83;2.33;;;10.70;1.00;;;;;;6207456;23;20253;-78
2023/04/11 07:22:19;;;;;;;3.97;2.43;;;10.80;1.00;;;;;;6208065;23;20286;-79
2023/04/11 07:24:45;;;;;;;7.50;3.10;;;10.90;1.00;;;;;;6208774;23;20151;-81
2023/04/11 07:27:12;;;;;;;7.53;3.10;;;10.90;1.00;;;;;;6181554;23;20241;-79
2023/04/11 07:29:39;;;;;;;6.03;3.10;;;11.00;1.00;;;;;;6206775;23;20170;-80
2023/04/11 07:32:05;;;;;;;5.05;2.83;;;11.10;1.00;;;;;;6207493;23;20197;-79
2023/04/11 07:34:32;;;;;;;7.18;2.95;;;11.20;1.00;;;;;;6207568;23;20142;-80
2023/04/11 07:36:59;;;;;;;7.80;2.80;;;11.00;1.00;;;;;;6207699;23;20233;-79
2023/04/11 07:39:26;;;;;;;5.37;2.37;;;10.90;1.00;;;;;;6176933;23;20182;-79
2023/04/11 07:41:52;;;;;;;4.97;1.43;;;10.50;1.00;;;;;;6176910;23;20534;-81
2023/04/11 07:44:18;;;;;;;5.30;1.23;;;9.40;1.00;;;;;;6175787;23;20579;-80
2023/04/11 07:46:43;;;;;;;2.17;1.00;;;7.80;1.00;;;;;;6176690;23;20227;-80
2023/04/11 07:49:09;;;;;;;1.10;0.73;;;6.90;1.00;;;;;;6203971;23;20211;-80
2023/04/11 07:51:34;;;;;;;2.17;0.70;;;6.70;99.90;;;;;;6176233;23;20162;-80
2023/04/11 07:54:00;;;;;;;1.07;0.80;;;6.60;99.90;;;;;;6175907;23;20173;-80
2023/04/11 07:56:26;;;;;;;2.93;0.67;;;6.50;99.90;;;;;;6202314;23;21056;-81
2023/04/11 07:58:51;;;;;;;1.50;0.80;;;6.50;99.90;;;;;;6173797;23;20602;-80
2023/04/11 08:01:24;;;;;;;1.90;0.80;;;6.70;99.90;;;;;;6175607;23;20186;-81
2023/04/11 08:03:54;;;;;;;2.80;1.00;;;6.90;99.90;;;;;;6203000;23;20161;-80
2023/04/11 08:06:19;;;;;;;2.90;1.00;;;7.00;99.90;;;;;;6177118;23;20255;-82
2023/04/11 08:08:46;;;;;;;2.63;1.50;;;7.20;99.90;;;;;;6180086;23;20884;-80
2023/04/11 08:11:12;;;;;;;1.20;0.90;;;7.40;99.90;;;;;;6181238;23;20181;-80
2023/04/11 08:13:38;;;;;;;1.77;0.90;;;7.50;99.90;;;;;;6181017;23;20211;-80
2023/04/11 08:16:09;;;;;;;1.63;0.80;;;7.70;99.90;;;;;;6180260;23;20158;-81
2023/04/11 08:18:36;;;;;;;1.53;0.67;;;8.00;92.00;;;;;;6203006;23;20162;-78
2023/04/11 08:21:02;;;;;;;2.07;0.77;;;8.30;47.20;;;;;;6209157;23;20178;-80
2023/04/11 08:23:28;;;;;;;3.30;0.80;;;8.40;33.40;;;;;;6181036;23;20162;-80
2023/04/11 08:25:54;;;;;;;2.60;1.07;;;8.80;22.10;;;;;;6183224;23;20165;-80
2023/04/11 08:28:21;;;;;;;3.87;1.40;;;9.10;24.30;;;;;;6179832;23;20159;-78
2023/04/11 08:30:47;;;;;;;2.17;1.10;;;9.40;13.10;;;;;;6183216;23;20243;-79
2023/04/11 08:33:14;;;;;;;3.03;1.70;;;9.60;1.00;;;;;;6178774;23;20726;-78
2023/04/11 08:35:41;;;;;;;2.97;1.33;;;9.80;1.00;;;;;;6177967;23;20269;-79
2023/04/11 08:38:07;;;;;;;2.87;1.53;;;10.00;1.00;;;;;;6207300;23;20161;-79
2023/04/11 08:40:33;;;;;;;2.70;1.40;;;10.10;1.00;;;;;;6207278;23;20661;-78
2023/04/11 08:42:59;;;;;;;2.60;1.20;;;10.20;1.00;;;;;;6207662;23;20143;-80
2023/04/11 08:45:25;;;;;;;2.93;1.20;;;10.20;1.00;;;;;;6180615;23;20217;-79
2023/04/11 08:47:51;;;;;;;2.30;1.60;;;10.20;1.00;;;;;;6180278;23;20548;-78
2023/04/11 08:50:17;;;;;;;2.13;1.27;;;10.20;1.00;;;;;;6206099;23;20250;-79
2023/04/11 08:52:43;;;;;;;2.00;1.20;;;11.00;1.00;;;;;;6180833;23;20162;-80
2023/04/11 08:55:09;;;;;;;2.90;1.00;;;10.00;1.00;;;;;;6208547;23;20277;-79
2023/04/11 08:57:37;;;;;;;5.23;1.40;;;10.00;1.00;;;;;;6206942;23;20174;-79
2023/04/11 09:00:13;;;;;;;3.30;1.20;;;10.00;1.00;;;;;;6209281;23;20538;-80
2023/04/11 09:02:59;;;;;;;2.20;1.30;;;10.10;1.00;;;;;;6208896;23;20646;-80
2023/04/11 09:05:39;;;;;;;3.17;1.33;;;10.00;1.00;;;;;;6207842;23;20150;-78
2023/04/11 09:08:10;;;;;;;2.73;1.20;;;10.10;1.00;;;;;;6207621;23;20170;-81
2023/04/11 09:10:37;;;;;;;3.20;1.30;;;10.20;1.00;;;;;;6186118;23;20581;-84
2023/04/11 09:13:22;;;;;;;3.17;1.40;;;10.30;1.00;;;;;;6189854;23;20168;-80
2023/04/11 09:16:05;;;;;;;2.50;1.50;;;10.20;1.00;;;;;;6211986;23;20154;-82
2023/04/11 09:18:38;;;;;;;4.37;1.63;;;10.10;1.00;;;;;;6210630;23;20161;-81
2023/04/11 09:21:07;;;;;;;3.17;1.33;;;10.10;1.00;;;;;;6212286;23;20256;-79
2023/04/11 09:23:34;;;;;;;1.87;1.17;;;9.90;1.00;;;;;;6212697;23;20150;-80
2023/04/11 09:26:00;;;;;;;3.27;1.47;;;9.90;1.00;;;;;;6186429;23;20212;-81
2023/04/11 09:28:26;;;;;;;3.43;1.47;;;10.00;1.00;;;;;;6211994;23;20213;-82
2023/04/11 09:30:53;;;;;;;4.30;1.40;;;10.40;1.00;;;;;;6212569;23;20247;-81
2023/04/11 09:33:24;;;;;;;3.70;1.20;;;10.80;1.00;;;;;;6185552;23;20493;-80
2023/04/11 09:35:52;;;;;;;2.50;1.30;;;11.70;1.00;;;;;;6213740;23;20161;-81
2023/04/11 09:38:34;;;;;;;3.90;1.40;;;10.90;1.00;;;;;;6182536;23;20233;-79
2023/04/11 09:41:01;;;;;;;5.47;1.70;;;10.70;1.00;;;;;;6180860;23;20514;-80
2023/04/11 09:43:48;;;;;;;3.63;1.40;;;10.70;1.00;;;;;;6181025;23;20249;-78
2023/04/11 09:46:17;;;;;;;5.40;1.40;;;10.70;1.00;;;;;;6207650;23;20137;-79
2023/04/11 09:48:43;;;;;;;2.60;1.10;;;10.70;1.00;;;;;;6207039;23;20138;-79
2023/04/11 09:51:09;;;;;;;3.53;1.10;;;10.70;1.00;;;;;;6180275;23;20182;-79
2023/04/11 09:53:36;;;;;;;3.30;1.40;;;10.30;1.00;;;;;;6207765;23;20276;-81
2023/04/11 09:56:02;;;;;;;1.73;1.27;;;10.10;1.00;;;;;;6208016;23;20154;-78
2023/04/11 09:58:33;;;;;;;2.97;1.57;;;10.00;1.00;;;;;;6180931;23;20676;-79
2023/04/11 10:01:03;;;;;;;3.63;1.40;;;10.30;1.00;;;;;;6207498;23;20386;-77
2023/04/11 10:03:35;;;;;;;2.03;1.57;;;9.90;1.00;;;;;;6207861;23;20189;-78
2023/04/11 10:06:30;;;;;;;6.47;2.00;;;9.90;1.00;;;;;;6207388;23;20150;-76
2023/04/11 10:09:10;;;;;;;4.33;1.13;;;10.20;1.00;;;;;;6207917;23;20169;-76
2023/04/11 10:11:36;;;;;;;2.33;1.33;;;10.20;1.00;;;;;;6208517;23;20202;-76
2023/04/11 10:14:02;;;;;;;4.13;1.77;;;10.30;1.00;;;;;;6207450;23;20882;-80
2023/04/11 10:16:31;;;;;;;4.97;1.53;;;10.40;1.00;;;;;;6207377;23;20220;-81
2023/04/11 10:18:56;;;;;;;2.33;1.50;;;10.50;1.00;;;;;;6179623;23;20173;-79
2023/04/11 10:21:38;;;;;;;3.47;1.70;;;10.60;1.00;;;;;;6216238;23;20174;-79
2023/04/11 10:24:14;;;;;;;4.43;2.13;;;10.80;1.00;;;;;;6190367;23;20154;-80
2023/04/11 10:26:50;;;;;;;3.83;2.50;;;11.10;1.00;;;;;;6189017;23;20158;-81
2023/04/11 10:29:32;;;;;;;7.57;2.00;;;11.20;1.00;;;;;;6193022;23;20174;-80
2023/04/11 10:32:10;;;;;;;3.40;1.70;;;11.10;1.00;;;;;;6216949;23;20154;-82
2023/04/11 10:34:59;;;;;;;4.03;1.47;;;11.00;1.00;;;;;;6191463;23;20669;-79
2023/04/11 10:37:35;;;;;;;4.57;1.57;;;11.00;1.00;;;;;;6190537;23;20549;-78
2023/04/11 10:40:00;;;;;;;14.83;2.27;;;10.90;1.00;;;;;;6212140;23;20178;-78
2023/04/11 10:42:29;;;;;;;5.17;1.70;;;10.90;1.00;;;;;;6211366;23;20241;-79
2023/04/11 10:45:16;;;;;;;3.43;1.70;;;10.80;1.00;;;;;;6212022;23;20147;-78
2023/04/11 10:47:57;;;;;;;3.03;1.63;;;10.90;1.00;;;;;;6211307;23;20139;-78
2023/04/11 10:50:25;;;;;;;5.03;1.80;;;11.00;1.00;;;;;;6184699;23;20268;-79
2023/04/11 10:52:55;;;;;;;4.10;1.50;;;11.10;1.00;;;;;;6212418;23;20603;-78
2023/04/11 10:55:21;;;;;;;3.28;1.50;;;11.20;1.00;;;;;;6183634;23;20694;-79
2023/04/11 10:58:06;;;;;;;4.53;1.50;;;11.40;1.00;;;;;;6184304;23;20296;-78
2023/04/11 11:03:24;;;;;;;2.23;1.30;;;12.00;1.00;;;;;;6211724;23;20243;-78
2023/04/11 11:06:01;;;;;;;2.53;1.30;;;11.70;1.00;;;;;;6192025;23;20229;-78
2023/04/11 11:08:36;;;;;;;2.17;0.90;;;11.20;1.00;;;;;;6196264;23;20173;-78
2023/04/11 11:11:07;;;;;;;3.17;1.20;;;11.00;1.00;;;;;;6224540;23;20565;-78
2023/04/11 11:13:44;;;;;;;2.27;1.37;;;10.80;1.00;;;;;;6217875;23;20177;-79
2023/04/11 11:16:24;;;;;;;2.65;1.10;;;10.90;1.00;;;;;;6215878;23;20164;-79
2023/04/11 11:18:52;;;;;;;1.90;1.07;;;10.90;1.00;;;;;;6219223;23;20146;-79
2023/04/11 11:21:21;;;;;;;3.60;1.20;;;11.10;1.00;;;;;;6190982;23;20248;-78
2023/04/11 11:23:57;;;;;;;2.60;1.10;;;11.00;1.00;;;;;;6215666;23;20159;-78
2023/04/11 11:26:39;;;;;;;3.63;1.23;;;11.00;1.00;;;;;;6212761;23;20206;-80
2023/04/11 11:29:05;;;;;;;3.40;1.37;;;11.20;1.00;;;;;;6178943;23;20709;-81
2023/04/11 11:31:44;;;;;;;1.33;0.80;;;11.30;1.00;;;;;;6209919;23;20158;-80
2023/04/11 11:34:10;;;;;;;3.90;1.20;;;11.20;1.00;;;;;;6192825;23;20162;-80
2023/04/11 11:36:40;;;;;;;2.87;1.10;;;11.10;1.00;;;;;;6194427;23;20181;-81
2023/04/11 11:39:06;;;;;;;5.03;1.50;;;11.00;1.00;;;;;;6192705;23;20162;-79
2023/04/11 11:41:33;;;;;;;3.70;1.20;;;11.30;1.00;;;;;;6221232;23;20198;-80
2023/04/11 11:44:00;;;;;;;3.17;1.50;;;11.50;1.00;;;;;;6214895;23;20204;-80
2023/04/11 11:46:29;;;;;;;4.32;1.50;;;11.70;1.00;;;;;;6193482;23;20158;-80
2023/04/11 11:49:07;;;;;;;2.53;1.30;;;11.90;1.00;;;;;;6191923;23;20162;-80
2023/04/11 11:51:40;;;;;;;2.30;1.30;;;12.00;1.00;;;;;;6222933;23;20629;-81
2023/04/11 11:54:08;;;;;;;2.13;0.88;;;12.20;1.00;;;;;;6223151;23;20343;-81
2023/04/11 11:56:34;;;;;;;3.17;1.20;;;12.50;1.00;;;;;;6195862;23;20162;-79
2023/04/11 11:59:02;;;;;;;2.88;1.10;;;12.70;1.00;;;;;;6218888;23;20146;-79
2023/04/11 12:01:27;;;;;;;2.40;1.00;;;12.40;1.00;;;;;;6191529;23;20650;-80
2023/04/11 12:03:53;;;;;;;3.58;1.05;;;12.40;1.00;;;;;;6195828;23;20233;-81
2023/04/11 12:06:22;;;;;;;4.05;1.08;;;12.60;1.00;;;;;;6194979;23;20158;-80
2023/04/11 12:08:52;;;;;;;5.80;1.83;;;12.50;1.00;;;;;;6195365;23;20190;-79
2023/04/11 12:11:18;;;;;;;3.83;1.25;;;12.40;1.00;;;;;;6195659;23;20205;-82
2023/04/11 12:13:44;;;;;;;3.50;0.82;;;12.40;1.00;;;;;;6187403;23;20154;-83
2023/04/11 12:16:12;;;;;;;2.92;1.08;;;12.50;1.00;;;;;;6213107;23;20154;-81
2023/04/11 12:18:40;;;;;;;1.95;0.90;;;12.60;1.00;;;;;;6185963;23;20189;-82
2023/04/11 12:21:06;;;;;;;3.78;1.20;;;12.50;1.00;;;;;;6185935;23;20666;-81
2023/04/11 12:23:32;;;;;;;2.25;0.93;;;12.60;1.00;;;;;;6212817;23;20146;-81
2023/04/11 12:25:57;;;;;;;2.03;0.73;;;12.50;1.00;;;;;;6185781;23;20159;-81
2023/04/11 12:28:23;;;;;;;3.65;1.08;;;12.50;1.00;;;;;;6185717;23;20181;-82
2023/04/11 12:30:49;;;;;;;2.35;0.90;;;12.40;1.00;;;;;;6184726;23;20178;-81
2023/04/11 12:33:15;;;;;;;2.10;1.10;;;12.30;1.00;;;;;;6184264;23;20155;-81
2023/04/11 12:35:40;;;;;;;2.55;1.10;;;12.30;1.00;;;;;;6210977;23;20893;-83
2023/04/11 12:38:06;;;;;;;3.05;1.00;;;12.40;1.00;;;;;;6186204;23;20172;-81
2023/04/11 12:40:32;;;;;;;5.15;1.45;;;12.40;1.00;;;;;;6186723;23;20186;-82
2023/04/11 12:42:58;;;;;;;2.60;1.10;;;12.50;1.00;;;;;;6186523;23;20158;-82
2023/04/11 12:45:24;;;;;;;6.53;1.10;;;12.60;1.00;;;;;;6211231;23;20234;-81
2023/04/11 12:47:50;;;;;;;1.88;0.98;;;12.90;1.00;;;;;;6186155;23;20208;-82
2023/04/11 12:50:16;;;;;;;2.30;0.80;;;13.00;1.00;;;;;;6212761;23;20170;-81
2023/04/11 12:52:41;;;;;;;2.45;1.13;;;13.00;1.00;;;;;;6186105;23;20166;-82
2023/04/11 12:55:08;;;;;;;3.92;0.95;;;13.10;1.00;;;;;;6186118;23;20154;-82
2023/04/11 12:57:34;;;;;;;3.45;1.05;;;13.30;1.00;;;;;;6212798;23;20139;-82
2023/04/11 13:00:00;;;;;;;5.57;0.98;;;13.60;1.00;;;;;;6185506;23;20915;-83
2023/04/11 13:02:25;;;;;;;5.55;1.13;;;13.60;1.00;;;;;;6185021;23;20201;-83
2023/04/11 13:04:54;;;;;;;6.00;1.60;;;13.50;1.00;;;;;;6186536;23;20155;-83